createdAt,value
2019-03-28T00:00:09.544Z,53.44
2019-03-28T00:02:39.259Z,53.54
2019-03-28T00:05:08.753Z,53.63
2019-03-28T00:07:38.256Z,53.90
2019-03-28T00:10:07.571Z,53.83
2019-03-28T00:12:36.142Z,53.91
2019-03-28T00:15:06.839Z,54.34
2019-03-28T00:17:35.777Z,55.97
2019-03-28T00:20:06.095Z,56.66
2019-03-28T00:22:36.889Z,56.57
2019-03-28T00:25:07.574Z,56.84
2019-03-28T00:27:36.443Z,55.74
2019-03-28T00:30:07.214Z,55.41
2019-03-28T00:32:36.073Z,55.43
2019-03-28T00:35:06.494Z,55.11
2019-03-28T00:37:36.034Z,54.86
2019-03-28T00:40:08.141Z,55.15
2019-03-28T00:42:36.966Z,55.40
2019-03-28T00:45:07.751Z,55.05
2019-03-28T00:47:36.908Z,55.21
2019-03-28T00:50:08.205Z,55.38
2019-03-28T00:52:37.663Z,55.86
2019-03-28T00:55:07.765Z,55.60
2019-03-28T00:57:36.927Z,55.77
2019-03-28T01:00:07.723Z,55.88
2019-03-28T01:02:36.705Z,55.76
2019-03-28T01:05:06.933Z,56.02
2019-03-28T01:07:36.001Z,56.00
2019-03-28T01:10:05.917Z,56.27
2019-03-28T01:12:34.987Z,56.32
2019-03-28T01:15:05.030Z,56.57
2019-03-28T01:17:34.336Z,56.63
2019-03-28T01:20:03.380Z,56.92
2019-03-28T01:22:31.976Z,56.97
2019-03-28T01:25:01.820Z,56.69
2019-03-28T01:27:31.357Z,56.78
2019-03-28T01:30:00.338Z,56.97
2019-03-28T01:32:29.417Z,57.07
2019-03-28T01:34:58.368Z,57.05
2019-03-28T01:37:27.295Z,56.88
2019-03-28T01:39:56.290Z,56.91
2019-03-28T01:42:25.384Z,57.35
2019-03-28T01:44:54.278Z,57.57
2019-03-28T01:47:23.172Z,57.77
2019-03-28T01:49:52.369Z,57.74
2019-03-28T01:52:21.427Z,58.14
2019-03-28T01:54:50.363Z,57.84
2019-03-28T01:57:19.665Z,57.64
2019-03-28T01:59:48.789Z,58.08
2019-03-28T02:02:17.758Z,58.16
2019-03-28T02:04:46.679Z,58.20
2019-03-28T02:07:16.191Z,58.04
2019-03-28T02:09:44.908Z,58.15
2019-03-28T02:12:13.941Z,58.63
2019-03-28T02:14:42.840Z,58.49
2019-03-28T02:19:58.042Z,58.83
2019-03-28T02:22:27.060Z,59.17
2019-03-28T02:24:56.094Z,59.46
2019-03-28T02:27:25.987Z,59.40
2019-03-28T02:29:54.897Z,59.15
2019-03-28T02:32:23.829Z,59.05
2019-03-28T02:34:52.929Z,59.57
2019-03-28T02:37:22.286Z,59.61
2019-03-28T02:39:51.180Z,59.42
2019-03-28T02:42:20.127Z,59.22
2019-03-28T02:44:49.373Z,59.14
2019-03-28T02:47:18.067Z,58.98
2019-03-28T02:49:47.051Z,59.37
2019-03-28T02:52:15.995Z,59.48
2019-03-28T02:54:45.068Z,59.20
2019-03-28T02:57:14.253Z,59.32
2019-03-28T02:59:43.410Z,59.10
2019-03-28T03:02:12.991Z,59.30
2019-03-28T03:04:43.041Z,59.37
2019-03-28T03:07:12.229Z,59.16
2019-03-28T03:09:41.270Z,59.60
2019-03-28T03:12:10.486Z,59.62
2019-03-28T03:14:39.489Z,59.92
2019-03-28T03:17:08.506Z,59.62
2019-03-28T03:19:37.647Z,60.07
2019-03-28T03:22:06.910Z,60.14
2019-03-28T03:24:35.795Z,60.25
2019-03-28T03:27:05.052Z,60.24
2019-03-28T03:29:34.095Z,60.24
2019-03-28T03:32:03.203Z,60.37
2019-03-28T03:34:33.134Z,60.26
2019-03-28T03:37:03.800Z,60.39
2019-03-28T03:39:33.527Z,60.54
2019-03-28T03:42:02.648Z,60.46
2019-03-28T03:44:31.553Z,60.18
2019-03-28T03:47:00.917Z,60.46
2019-03-28T03:49:30.759Z,60.76
2019-03-28T03:52:00.125Z,60.80
2019-03-28T03:54:29.510Z,60.90
2019-03-28T03:56:58.665Z,60.82
2019-03-28T03:59:27.855Z,60.73
2019-03-28T04:01:57.298Z,61.02
2019-03-28T04:04:26.221Z,60.92
2019-03-28T04:06:55.318Z,60.63
2019-03-28T04:09:24.398Z,60.69
2019-03-28T04:11:53.965Z,60.84
2019-03-28T04:14:22.919Z,60.90
2019-03-28T04:16:52.109Z,60.84
2019-03-28T04:19:21.472Z,60.85
2019-03-28T04:21:50.734Z,60.92
2019-03-28T04:24:19.821Z,61.14
2019-03-28T04:26:49.077Z,61.11
2019-03-28T04:29:18.045Z,60.96
2019-03-28T04:31:47.478Z,61.17
2019-03-28T04:34:17.344Z,61.24
2019-03-28T04:36:46.331Z,61.26
2019-03-28T04:39:16.578Z,61.13
2019-03-28T04:41:46.063Z,60.86
2019-03-28T04:44:15.403Z,60.96
2019-03-28T04:46:45.325Z,61.01
2019-03-28T04:49:15.763Z,60.63
2019-03-28T04:51:45.180Z,61.05
2019-03-28T04:54:15.002Z,61.59
2019-03-28T04:56:44.261Z,61.62
2019-03-28T04:59:13.260Z,61.86
2019-03-28T05:01:42.369Z,61.56
2019-03-28T05:04:11.049Z,61.89
2019-03-28T05:06:40.349Z,61.64
2019-03-28T05:09:09.094Z,61.57
2019-03-28T05:11:38.641Z,61.60
2019-03-28T05:14:07.323Z,61.67
2019-03-28T05:16:36.740Z,61.82
2019-03-28T05:19:05.496Z,61.90
2019-03-28T05:21:34.972Z,61.89
2019-03-28T05:24:03.662Z,61.88
2019-03-28T05:26:33.101Z,62.00
2019-03-28T05:29:01.845Z,61.59
2019-03-28T05:31:30.724Z,61.59
2019-03-28T05:33:59.398Z,61.77
2019-03-28T05:36:27.975Z,61.61
2019-03-28T05:38:56.879Z,61.27
2019-03-28T05:41:26.367Z,61.61
2019-03-28T05:43:55.097Z,61.79
2019-03-28T05:46:25.897Z,61.76
2019-03-28T05:48:55.204Z,61.39
2019-03-28T05:51:23.981Z,61.55
2019-03-28T05:53:53.419Z,61.75
2019-03-28T05:56:22.152Z,61.31
2019-03-28T05:58:51.013Z,61.08
2019-03-28T06:01:19.596Z,61.36
2019-03-28T06:03:48.478Z,61.57
2019-03-28T06:06:18.377Z,61.32
2019-03-28T06:08:48.067Z,61.19
2019-03-28T06:11:16.813Z,61.25
2019-03-28T06:13:46.259Z,61.49
2019-03-28T06:16:14.917Z,61.29
2019-03-28T06:18:44.023Z,61.46
2019-03-28T06:21:13.090Z,61.34
2019-03-28T06:23:42.674Z,61.14
2019-03-28T06:26:11.277Z,61.40
2019-03-28T06:28:40.101Z,61.51
2019-03-28T06:31:08.827Z,61.50
2019-03-28T06:33:38.531Z,61.69
2019-03-28T06:36:08.214Z,61.05
2019-03-28T06:38:37.070Z,61.08
2019-03-28T06:41:05.762Z,60.06
2019-03-28T06:43:34.564Z,60.21
2019-03-28T06:46:04.017Z,59.65
2019-03-28T06:48:32.886Z,59.26
2019-03-28T06:51:02.384Z,59.47
2019-03-28T06:53:31.164Z,59.73
2019-03-28T06:56:00.561Z,59.84
2019-03-28T06:58:29.398Z,58.24
2019-03-28T07:00:58.330Z,58.43
2019-03-28T07:03:27.684Z,58.46
2019-03-28T07:05:56.867Z,57.66
2019-03-28T07:08:25.718Z,57.68
2019-03-28T07:10:57.794Z,56.95
2019-03-28T07:13:25.277Z,57.52
2019-03-28T07:15:53.926Z,57.85
2019-03-28T07:18:23.328Z,57.58
2019-03-28T07:20:52.439Z,56.69
2019-03-28T07:23:22.206Z,56.46
2019-03-28T07:25:51.640Z,56.62
2019-03-28T07:28:20.750Z,55.93
2019-03-28T07:30:49.627Z,55.50
2019-03-28T07:33:18.746Z,55.13
2019-03-28T07:35:47.916Z,54.82
2019-03-28T07:38:16.732Z,55.34
2019-03-28T07:40:45.468Z,54.59
2019-03-28T07:43:14.474Z,54.50
2019-03-28T07:45:43.512Z,53.79
2019-03-28T07:48:12.901Z,53.15
2019-03-28T07:50:42.778Z,54.28
2019-03-28T07:53:11.956Z,53.66
2019-03-28T07:55:40.876Z,53.56
2019-03-28T07:58:09.667Z,53.76
2019-03-28T08:00:38.611Z,53.66
2019-03-28T08:03:07.857Z,53.41
2019-03-28T08:05:36.982Z,52.43
2019-03-28T08:08:05.949Z,51.58
2019-03-28T08:10:34.814Z,50.11
2019-03-28T08:13:04.396Z,50.44
2019-03-28T08:15:33.311Z,49.40
2019-03-28T08:18:02.238Z,50.70
2019-03-28T08:20:31.303Z,48.99
2019-03-28T08:23:00.519Z,48.29
2019-03-28T08:25:29.493Z,47.72
2019-03-28T08:27:58.150Z,47.11
2019-03-28T08:30:35.942Z,46.76
2019-03-28T08:33:06.158Z,47.16
2019-03-28T08:35:36.802Z,47.17
2019-03-28T08:38:09.783Z,45.04
2019-03-28T08:40:40.063Z,43.56
2019-03-28T08:43:09.951Z,45.29
2019-03-28T08:45:39.614Z,44.61
2019-03-28T08:48:08.464Z,42.18
2019-03-28T08:50:37.358Z,40.19
2019-03-28T08:53:06.317Z,42.25
2019-03-28T08:55:34.989Z,36.04
2019-03-28T08:58:04.368Z,36.89
2019-03-28T09:00:50.216Z,31.96
2019-03-28T09:03:03.604Z,35.73
2019-03-28T09:05:33.421Z,35.93
2019-03-28T09:08:02.296Z,31.91
2019-03-28T09:10:31.382Z,31.14
2019-03-28T09:13:00.097Z,32.80
2019-03-28T09:15:42.687Z,32.39
2019-03-28T09:18:00.360Z,32.67
2019-03-28T09:20:29.793Z,31.96
2019-03-28T09:22:58.765Z,31.25
2019-03-28T09:25:28.004Z,30.38
2019-03-28T09:27:56.855Z,32.83
2019-03-28T09:30:47.518Z,29.52
2019-03-28T09:33:07.650Z,29.25
2019-03-28T09:35:36.797Z,29.25
2019-03-28T09:38:05.418Z,29.64
2019-03-28T09:40:34.861Z,29.64
2019-03-28T09:43:04.015Z,28.20
2019-03-28T09:45:33.169Z,28.58
2019-03-28T09:48:02.499Z,30.95
2019-03-28T09:50:32.054Z,33.92
2019-03-28T09:53:01.282Z,34.88
2019-03-28T09:55:30.731Z,35.68
2019-03-28T09:57:59.830Z,35.24
2019-03-28T10:00:32.451Z,35.75
2019-03-28T10:03:00.478Z,34.47
2019-03-28T10:05:29.867Z,32.61
2019-03-28T10:07:59.321Z,32.89
2019-03-28T10:10:28.644Z,31.12
2019-03-28T10:12:57.872Z,29.90
2019-03-28T10:15:27.248Z,30.47
2019-03-28T10:17:56.475Z,32.68
2019-03-28T10:20:25.618Z,35.20
2019-03-28T10:22:55.379Z,31.87
2019-03-28T10:25:24.375Z,31.60
2019-03-28T10:27:53.548Z,29.32
2019-03-28T10:30:28.097Z,29.32
2019-03-28T10:32:57.207Z,26.78
2019-03-28T10:35:29.548Z,26.77
2019-03-28T10:37:59.000Z,27.59
2019-03-28T10:40:28.335Z,28.06
2019-03-28T10:42:57.588Z,28.23
2019-03-28T10:45:26.722Z,29.70
2019-03-28T10:47:56.007Z,28.81
2019-03-28T10:50:39.820Z,30.21
2019-03-28T10:52:56.357Z,28.56
2019-03-28T10:55:25.367Z,29.79
2019-03-28T10:57:54.974Z,28.15
2019-03-28T11:00:25.244Z,25.72
2019-03-28T11:02:54.805Z,25.48
2019-03-28T11:05:23.488Z,24.84
2019-03-28T11:07:52.801Z,26.48
2019-03-28T11:10:22.106Z,25.58
2019-03-28T11:12:51.324Z,27.52
2019-03-28T11:15:20.642Z,22.34
2019-03-28T11:17:49.931Z,18.44
2019-03-28T11:20:19.588Z,18.54
2019-03-28T11:22:48.804Z,24.17
2019-03-28T11:25:18.058Z,21.02
2019-03-28T11:27:47.684Z,20.15
2019-03-28T11:30:18.500Z,21.81
2019-03-28T11:32:47.866Z,23.44
2019-03-28T11:35:17.136Z,20.59
2019-03-28T11:37:47.383Z,18.78
2019-03-28T11:40:17.167Z,18.80
2019-03-28T11:42:46.486Z,18.55
2019-03-28T11:45:15.825Z,20.63
2019-03-28T11:47:45.130Z,20.69
2019-03-28T11:50:17.102Z,19.64
2019-03-28T11:52:45.205Z,21.64
2019-03-28T11:55:14.584Z,20.06
2019-03-28T11:57:44.120Z,21.10
2019-03-28T12:00:16.454Z,21.83
2019-03-28T12:02:45.910Z,22.29
2019-03-28T12:05:15.853Z,24.15
2019-03-28T12:07:45.211Z,24.75
2019-03-28T12:10:14.638Z,21.80
2019-03-28T12:12:44.078Z,24.84
2019-03-28T12:15:13.642Z,19.32
2019-03-28T12:17:43.391Z,17.09
2019-03-28T12:20:12.538Z,17.62
2019-03-28T12:22:42.765Z,21.75
2019-03-28T12:25:12.376Z,20.39
2019-03-28T12:27:41.608Z,18.55
2019-03-28T12:30:15.777Z,20.32
2019-03-28T12:32:43.484Z,19.52
2019-03-28T12:35:13.174Z,22.04
2019-03-28T12:37:42.522Z,18.88
2019-03-28T12:40:11.903Z,23.27
2019-03-28T12:42:41.412Z,19.50
2019-03-28T12:45:15.065Z,22.18
2019-03-28T12:47:44.651Z,22.41
2019-03-28T12:50:15.017Z,22.13
2019-03-28T12:52:45.020Z,19.47
2019-03-28T12:55:14.138Z,25.92
2019-03-28T12:57:43.775Z,25.69
2019-03-28T13:00:14.271Z,24.79
2019-03-28T13:02:43.762Z,25.91
2019-03-28T13:05:13.265Z,26.12
2019-03-28T13:07:42.582Z,26.98
2019-03-28T13:10:12.160Z,23.85
2019-03-28T13:12:41.928Z,24.85
2019-03-28T13:15:11.168Z,29.59
2019-03-28T13:17:39.966Z,30.97
2019-03-28T13:20:09.849Z,32.75
2019-03-28T13:22:39.043Z,33.41
2019-03-28T13:25:08.489Z,31.81
2019-03-28T13:27:38.010Z,33.05
2019-03-28T13:30:10.794Z,33.44
2019-03-28T13:32:42.240Z,31.90
2019-03-28T13:35:11.678Z,33.72
2019-03-28T13:37:40.256Z,33.62
2019-03-28T13:40:09.856Z,33.96
2019-03-28T13:42:39.463Z,34.31
2019-03-28T13:45:12.043Z,33.75
2019-03-28T13:47:41.595Z,33.43
2019-03-28T13:50:11.971Z,34.34
2019-03-28T13:52:40.863Z,33.54
2019-03-28T13:55:10.372Z,35.09
2019-03-28T13:57:39.633Z,36.12
2019-03-28T14:00:09.648Z,36.38
2019-03-28T14:02:38.953Z,35.78
2019-03-28T14:05:09.131Z,35.21
2019-03-28T14:07:38.276Z,35.00
2019-03-28T14:10:08.714Z,33.93
2019-03-28T14:12:38.167Z,33.98
2019-03-28T14:15:07.796Z,33.66
2019-03-28T14:17:36.819Z,34.22
2019-03-28T14:20:08.949Z,36.77
2019-03-28T14:22:38.623Z,37.00
2019-03-28T14:25:07.901Z,35.59
2019-03-28T14:27:37.582Z,36.11
2019-03-28T14:30:09.692Z,37.26
2019-03-28T14:32:52.115Z,36.67
2019-03-28T14:35:09.572Z,36.11
2019-03-28T14:37:40.750Z,37.72
2019-03-28T14:40:10.267Z,37.12
2019-03-28T14:42:40.727Z,36.72
2019-03-28T14:45:10.055Z,35.87
2019-03-28T14:47:38.947Z,36.86
2019-03-28T14:50:09.767Z,36.86
2019-03-28T14:52:38.841Z,35.81
2019-03-28T14:55:08.685Z,36.09
2019-03-28T14:57:37.641Z,36.07
2019-03-28T15:00:09.979Z,36.73
2019-03-28T15:02:38.735Z,36.96
2019-03-28T15:05:07.839Z,36.81
2019-03-28T15:07:36.903Z,36.91
2019-03-28T15:10:07.227Z,36.46
2019-03-28T15:12:36.592Z,37.85
2019-03-28T15:15:06.383Z,36.29
2019-03-28T15:17:35.345Z,36.36
2019-03-28T15:20:05.933Z,36.94
2019-03-28T15:22:35.595Z,37.35
2019-03-28T15:25:05.901Z,37.06
2019-03-28T15:27:35.426Z,37.39
2019-03-28T15:30:08.380Z,38.21
2019-03-28T15:32:37.434Z,38.49
2019-03-28T15:35:06.574Z,37.80
2019-03-28T15:37:35.521Z,38.25
2019-03-28T15:40:08.496Z,39.06
2019-03-28T15:42:37.631Z,38.88
2019-03-28T15:45:07.417Z,38.95
2019-03-28T15:47:37.181Z,39.06
2019-03-28T15:50:06.742Z,39.85
2019-03-28T15:52:35.752Z,40.01
2019-03-28T15:55:05.701Z,39.33
2019-03-28T15:57:35.785Z,39.79
2019-03-28T16:00:07.555Z,39.88
2019-03-28T16:02:36.135Z,39.40
2019-03-28T16:05:06.223Z,39.94
2019-03-28T16:07:34.925Z,40.00
2019-03-28T16:10:04.794Z,40.37
2019-03-28T16:12:33.814Z,39.99
2019-03-28T16:15:05.350Z,40.05
2019-03-28T16:17:34.103Z,39.66
2019-03-28T16:20:03.380Z,40.00
2019-03-28T16:22:32.881Z,40.10
2019-03-28T16:25:01.743Z,39.97
2019-03-28T16:27:30.958Z,40.74
2019-03-28T16:30:00.027Z,40.62
2019-03-28T16:32:29.532Z,41.29
2019-03-28T16:34:58.807Z,41.29
2019-03-28T16:37:28.455Z,41.59
2019-03-28T16:39:57.277Z,41.96
2019-03-28T16:42:26.481Z,42.13
2019-03-28T16:44:55.528Z,41.85
2019-03-28T16:47:24.262Z,42.47
2019-03-28T16:49:53.129Z,42.28
2019-03-28T16:52:21.725Z,42.13
2019-03-28T16:54:51.044Z,42.22
2019-03-28T16:57:20.669Z,42.34
2019-03-28T16:59:50.228Z,42.27
2019-03-28T17:02:19.383Z,42.65
2019-03-28T17:04:49.709Z,42.36
2019-03-28T17:07:18.841Z,42.75
2019-03-28T17:09:47.858Z,43.06
2019-03-28T17:12:17.121Z,43.95
2019-03-28T17:14:48.085Z,44.44
2019-03-28T17:17:17.676Z,44.46
2019-03-28T17:19:47.136Z,44.72
2019-03-28T17:22:16.797Z,45.02
2019-03-28T17:24:46.367Z,45.38
2019-03-28T17:27:15.213Z,45.13
2019-03-28T17:29:44.671Z,45.37
2019-03-28T17:32:13.567Z,45.73
2019-03-28T17:34:45.824Z,45.65
2019-03-28T17:37:14.022Z,45.67
2019-03-28T17:39:43.352Z,46.23
2019-03-28T17:42:12.411Z,46.37
2019-03-28T17:44:41.525Z,46.70
2019-03-28T17:47:10.752Z,46.53
2019-03-28T17:49:40.607Z,46.51
2019-03-28T17:52:10.130Z,46.37
2019-03-28T17:54:39.337Z,47.34
2019-03-28T17:57:08.480Z,47.27
2019-03-28T17:59:38.254Z,47.34
2019-03-28T18:02:07.274Z,47.17
2019-03-28T18:04:47.421Z,47.41
2019-03-28T18:07:07.750Z,47.84
2019-03-28T18:09:37.740Z,47.51
2019-03-28T18:12:06.825Z,47.92
2019-03-28T18:14:35.863Z,47.48
2019-03-28T18:17:05.395Z,47.82
2019-03-28T18:19:34.953Z,47.92
2019-03-28T18:22:04.297Z,48.14
2019-03-28T18:24:34.478Z,48.25
2019-03-28T18:27:03.825Z,48.02
2019-03-28T18:29:35.835Z,48.07
2019-03-28T18:32:03.635Z,48.48
2019-03-28T18:34:34.748Z,48.74
2019-03-28T18:37:03.948Z,48.85
2019-03-28T18:39:32.759Z,48.72
2019-03-28T18:42:02.343Z,48.69
2019-03-28T18:44:32.046Z,48.97
2019-03-28T18:47:01.188Z,48.98
2019-03-28T18:49:30.961Z,48.64
2019-03-28T18:52:00.797Z,48.90
2019-03-28T18:54:29.778Z,49.34
2019-03-28T18:56:59.151Z,49.35
2019-03-28T18:59:28.066Z,49.74
2019-03-28T19:01:57.496Z,49.23
2019-03-28T19:04:27.517Z,49.38
2019-03-28T19:06:57.739Z,49.38
2019-03-28T19:09:27.501Z,49.42
2019-03-28T19:11:57.130Z,49.10
2019-03-28T19:14:26.411Z,49.40
2019-03-28T19:17:00.912Z,49.30
2019-03-28T19:19:39.264Z,49.45
2019-03-28T19:22:01.172Z,49.21
2019-03-28T19:24:30.030Z,50.29
2019-03-28T19:26:59.118Z,50.22
2019-03-28T19:29:27.921Z,50.28
2019-03-28T19:31:56.917Z,50.37
2019-03-28T19:34:26.076Z,50.16
2019-03-28T19:36:57.017Z,50.52
2019-03-28T19:39:31.669Z,50.69
2019-03-28T19:42:04.236Z,50.25
2019-03-28T19:44:31.987Z,50.44
2019-03-28T19:47:01.383Z,50.31
2019-03-28T19:49:30.847Z,50.73
2019-03-28T19:52:00.327Z,50.66
2019-03-28T19:54:30.066Z,50.39
2019-03-28T19:56:59.926Z,50.17
2019-03-28T19:59:28.721Z,50.74
2019-03-28T20:01:57.520Z,50.92
2019-03-28T20:04:26.772Z,51.04
2019-03-28T20:06:55.589Z,51.29
2019-03-28T20:09:24.575Z,51.42
2019-03-28T20:11:53.406Z,51.43
2019-03-28T20:14:23.528Z,51.48
2019-03-28T20:16:53.792Z,51.56
2019-03-28T20:19:23.334Z,52.10
2019-03-28T20:21:51.975Z,52.57
2019-03-28T20:24:21.324Z,52.37
2019-03-28T20:26:50.013Z,52.05
2019-03-28T20:29:18.967Z,51.85
2019-03-28T20:31:48.281Z,52.42
2019-03-28T20:34:17.070Z,52.43
2019-03-28T20:36:46.509Z,52.54
2019-03-28T20:39:15.489Z,52.40
2019-03-28T20:41:44.546Z,52.43
2019-03-28T20:44:14.164Z,52.51
2019-03-28T20:46:43.178Z,52.92
2019-03-28T20:49:12.317Z,52.54
2019-03-28T20:51:41.691Z,53.20
2019-03-28T20:54:11.093Z,53.45
2019-03-28T20:56:40.017Z,53.62
2019-03-28T20:59:09.272Z,52.82
2019-03-28T21:01:38.145Z,52.86
2019-03-28T21:04:08.764Z,53.61
2019-03-28T21:06:38.447Z,53.32
2019-03-28T21:09:08.408Z,53.13
2019-03-28T21:11:38.922Z,53.06
2019-03-28T21:14:07.888Z,53.35
2019-03-28T21:16:38.060Z,53.46
2019-03-28T21:19:07.689Z,53.68
2019-03-28T21:21:37.184Z,53.54
2019-03-28T21:24:06.208Z,53.63
2019-03-28T21:26:35.274Z,53.88
2019-03-28T21:29:04.618Z,53.92
2019-03-28T21:31:34.460Z,53.63
2019-03-28T21:34:03.554Z,53.90
2019-03-28T21:36:32.944Z,54.34
2019-03-28T21:39:02.065Z,54.22
2019-03-28T21:41:31.356Z,54.46
2019-03-28T21:44:00.373Z,54.08
2019-03-28T21:46:29.511Z,54.38
2019-03-28T21:48:59.250Z,54.67
2019-03-28T21:51:28.243Z,54.62
2019-03-28T21:53:58.284Z,54.79
2019-03-28T21:56:28.213Z,55.11
2019-03-28T21:58:58.161Z,55.15
2019-03-28T22:01:27.917Z,54.81
2019-03-28T22:03:57.660Z,55.11
2019-03-28T22:06:27.304Z,55.45
2019-03-28T22:08:56.792Z,55.83
2019-03-28T22:11:26.278Z,55.93
2019-03-28T22:13:55.902Z,56.02
2019-03-28T22:16:25.639Z,55.90
2019-03-28T22:18:55.014Z,55.93
2019-03-28T22:21:27.252Z,55.86
2019-03-28T22:23:55.330Z,56.61
2019-03-28T22:26:24.614Z,56.34
2019-03-28T22:28:54.085Z,55.82
2019-03-28T22:31:23.678Z,56.27
2019-03-28T22:33:52.718Z,56.20
2019-03-28T22:36:22.066Z,56.34
2019-03-28T22:38:51.209Z,55.74
2019-03-28T22:41:20.368Z,56.28
2019-03-28T22:43:49.823Z,56.65
2019-03-28T22:46:19.598Z,56.89
2019-03-28T22:48:48.857Z,56.63
2019-03-28T22:51:17.852Z,56.95
2019-03-28T22:53:47.274Z,57.04
2019-03-28T22:56:16.699Z,56.79
2019-03-28T22:58:45.674Z,57.17
2019-03-28T23:01:15.405Z,57.42
2019-03-28T23:03:44.601Z,57.73
2019-03-28T23:06:14.093Z,57.55
2019-03-28T23:08:43.235Z,58.20
2019-03-28T23:11:13.860Z,58.19
2019-03-28T23:13:43.301Z,57.91
2019-03-28T23:16:12.661Z,58.30
2019-03-28T23:18:42.022Z,58.82
2019-03-28T23:21:11.572Z,59.81
2019-03-28T23:23:40.954Z,59.90
2019-03-28T23:26:10.792Z,59.60
2019-03-28T23:28:40.100Z,60.12
2019-03-28T23:31:09.709Z,59.61
2019-03-28T23:33:38.987Z,59.47
2019-03-28T23:36:08.429Z,60.13
2019-03-28T23:38:38.062Z,60.04
2019-03-28T23:41:07.507Z,59.76
2019-03-28T23:43:36.725Z,59.86
2019-03-28T23:46:06.322Z,59.51
2019-03-28T23:48:35.579Z,59.78
2019-03-28T23:51:05.288Z,59.87
2019-03-28T23:53:36.965Z,59.78
2019-03-28T23:56:06.318Z,60.10
2019-03-28T23:58:35.646Z,59.83
